createdAt,value
2018-01-14T00:02:02.232Z,4.57
2018-01-14T00:04:29.808Z,4.63
2018-01-14T00:06:57.353Z,4.97
2018-01-14T00:09:24.837Z,4.33
2018-01-14T00:11:52.317Z,4.43
2018-01-14T00:14:19.867Z,4.30
2018-01-14T00:16:47.420Z,4.60
2018-01-14T00:19:14.894Z,4.07
2018-01-14T00:21:42.380Z,4.13
2018-01-14T00:24:09.931Z,4.37
2018-01-14T00:26:37.498Z,4.23
2018-01-14T00:31:45.728Z,4.30
2018-01-14T00:34:13.319Z,4.20
2018-01-14T00:36:40.817Z,4.33
2018-01-14T00:39:08.351Z,4.17
2018-01-14T00:41:35.840Z,4.07
2018-01-14T00:44:03.387Z,4.20
2018-01-14T00:46:30.922Z,4.20
2018-01-14T00:48:58.503Z,4.20
2018-01-14T00:51:26.008Z,4.10
2018-01-14T00:53:53.550Z,4.07
2018-01-14T00:56:21.134Z,3.97
2018-01-14T00:58:48.697Z,4.00
2018-01-14T01:01:16.289Z,4.00
2018-01-14T01:03:43.872Z,3.50
2018-01-14T01:06:11.354Z,4.03
2018-01-14T01:08:38.897Z,3.97
2018-01-14T01:11:06.373Z,3.50
2018-01-14T01:13:33.857Z,3.77
2018-01-14T01:16:01.407Z,3.40
2018-01-14T01:18:28.991Z,3.50
2018-01-14T01:20:56.465Z,3.87
2018-01-14T01:23:24.027Z,3.43
2018-01-14T01:25:51.579Z,3.70
2018-01-14T01:28:19.061Z,3.43
2018-01-14T01:30:46.661Z,3.17
2018-01-14T01:33:14.137Z,3.73
2018-01-14T01:35:41.609Z,3.60
2018-01-14T01:38:09.123Z,3.33
2018-01-14T01:40:36.600Z,3.67
2018-01-14T01:43:04.171Z,3.23
2018-01-14T01:45:31.735Z,3.27
2018-01-14T01:47:59.278Z,3.60
2018-01-14T01:50:26.819Z,3.00
2018-01-14T01:52:54.419Z,3.27
2018-01-14T01:55:21.968Z,3.57
2018-01-14T01:57:49.536Z,3.47
2018-01-14T02:00:17.091Z,2.93
2018-01-14T02:02:44.639Z,3.23
2018-01-14T02:05:12.189Z,3.40
2018-01-14T02:07:39.872Z,3.43
2018-01-14T02:10:07.472Z,3.57
2018-01-14T02:12:35.040Z,3.13
2018-01-14T02:15:02.596Z,3.07
2018-01-14T02:17:30.156Z,3.20
2018-01-14T02:19:57.638Z,3.17
2018-01-14T02:22:25.232Z,2.33
2018-01-14T02:24:52.779Z,3.27
2018-01-14T02:27:20.331Z,2.90
2018-01-14T02:29:47.850Z,3.00
2018-01-14T02:32:15.332Z,2.83
2018-01-14T02:34:42.845Z,3.07
2018-01-14T02:37:10.386Z,3.07
2018-01-14T02:39:37.977Z,2.90
2018-01-14T02:42:05.546Z,2.67
2018-01-14T02:44:33.098Z,3.30
2018-01-14T02:47:00.586Z,3.27
2018-01-14T02:49:28.148Z,2.90
2018-01-14T02:51:55.663Z,3.43
2018-01-14T02:54:23.252Z,2.80
2018-01-14T02:56:50.816Z,2.80
2018-01-14T02:59:18.373Z,3.20
2018-01-14T03:01:45.924Z,2.80
2018-01-14T03:04:13.467Z,3.10
2018-01-14T03:06:41.025Z,3.17
2018-01-14T03:09:08.589Z,3.03
2018-01-14T03:11:36.070Z,3.03
2018-01-14T03:14:03.624Z,2.73
2018-01-14T03:16:31.102Z,3.30
2018-01-14T03:18:58.648Z,2.50
2018-01-14T03:21:26.201Z,3.10
2018-01-14T03:23:53.778Z,3.30
2018-01-14T03:26:21.343Z,3.00
2018-01-14T03:28:48.821Z,3.07
2018-01-14T03:31:16.372Z,3.07
2018-01-14T03:33:43.920Z,3.27
2018-01-14T03:36:11.508Z,3.33
2018-01-14T03:38:39.103Z,2.90
2018-01-14T03:41:06.656Z,3.30
2018-01-14T03:43:34.202Z,4.07
2018-01-14T03:46:01.767Z,3.80
2018-01-14T03:48:29.325Z,3.37
2018-01-14T03:50:56.894Z,3.43
2018-01-14T03:53:24.474Z,3.80
2018-01-14T03:55:52.016Z,3.53
2018-01-14T03:58:19.489Z,3.67
2018-01-14T04:00:47.040Z,3.40
2018-01-14T04:03:14.517Z,3.70
2018-01-14T04:05:42.080Z,3.80
2018-01-14T04:08:09.637Z,3.67
2018-01-14T04:10:37.145Z,3.33
2018-01-14T04:13:04.693Z,3.33
2018-01-14T04:15:32.246Z,3.70
2018-01-14T04:17:59.835Z,3.37
2018-01-14T04:20:27.411Z,3.77
2018-01-14T04:22:54.889Z,3.30
2018-01-14T04:25:22.459Z,3.40
2018-01-14T04:27:49.968Z,3.57
2018-01-14T04:30:17.442Z,3.60
2018-01-14T04:32:45.095Z,3.53
2018-01-14T04:35:12.572Z,3.30
2018-01-14T04:37:40.147Z,3.07
2018-01-14T04:40:07.650Z,3.40
2018-01-14T04:42:35.130Z,3.00
2018-01-14T04:45:02.618Z,3.27
2018-01-14T04:47:30.175Z,3.00
2018-01-14T04:49:57.737Z,3.03
2018-01-14T04:52:25.285Z,3.30
2018-01-14T04:54:52.801Z,3.20
2018-01-14T04:57:20.356Z,3.03
2018-01-14T04:59:47.894Z,3.13
2018-01-14T05:02:15.442Z,3.43
2018-01-14T05:04:43.012Z,2.80
2018-01-14T05:07:10.565Z,3.13
2018-01-14T05:09:38.145Z,3.23
2018-01-14T05:12:05.729Z,3.20
2018-01-14T05:14:33.282Z,2.97
2018-01-14T05:17:00.832Z,3.10
2018-01-14T05:19:28.389Z,3.00
2018-01-14T05:21:55.927Z,3.10
2018-01-14T05:24:23.486Z,3.00
2018-01-14T05:26:50.963Z,2.87
2018-01-14T05:29:18.543Z,3.10
2018-01-14T05:31:46.094Z,3.13
2018-01-14T05:34:13.651Z,2.80
2018-01-14T05:36:41.222Z,3.20
2018-01-14T05:39:08.807Z,2.97
2018-01-14T05:41:36.356Z,2.83
2018-01-14T05:44:03.916Z,3.10
2018-01-14T05:46:31.496Z,2.83
2018-01-14T05:48:58.977Z,2.60
2018-01-14T05:51:26.536Z,3.50
2018-01-14T05:53:54.074Z,2.67
2018-01-14T05:56:21.624Z,2.73
2018-01-14T05:58:49.194Z,2.80
2018-01-14T06:01:16.685Z,2.77
2018-01-14T06:03:44.166Z,2.87
2018-01-14T06:06:11.710Z,2.60
2018-01-14T06:08:39.221Z,2.77
2018-01-14T06:11:06.777Z,2.60
2018-01-14T06:13:34.347Z,2.97
2018-01-14T06:16:02.094Z,2.87
2018-01-14T06:18:29.642Z,3.27
2018-01-14T06:20:57.189Z,2.90
2018-01-14T06:23:24.755Z,2.63
2018-01-14T06:25:52.315Z,2.50
2018-01-14T06:28:19.888Z,2.87
2018-01-14T06:30:47.359Z,2.70
2018-01-14T06:33:14.952Z,2.40
2018-01-14T06:35:42.578Z,2.80
2018-01-14T06:38:10.057Z,2.67
2018-01-14T06:40:37.540Z,2.43
2018-01-14T06:43:05.027Z,2.67
2018-01-14T06:45:32.646Z,2.57
2018-01-14T06:48:00.220Z,2.60
2018-01-14T06:50:27.777Z,2.60
2018-01-14T06:52:55.332Z,2.73
2018-01-14T06:55:22.824Z,2.70
2018-01-14T06:57:50.375Z,2.83
2018-01-14T07:00:17.853Z,2.70
2018-01-14T07:02:45.349Z,3.10
2018-01-14T07:05:12.934Z,3.07
2018-01-14T07:07:40.491Z,3.63
2018-01-14T07:10:08.034Z,3.30
2018-01-14T07:12:35.582Z,3.47
2018-01-14T07:15:03.066Z,4.27
2018-01-14T07:17:30.592Z,3.57
2018-01-14T07:19:58.172Z,3.83
2018-01-14T07:22:25.742Z,4.03
2018-01-14T07:24:53.295Z,4.00
2018-01-14T07:27:20.897Z,3.90
2018-01-14T07:29:48.466Z,4.10
2018-01-14T07:32:16.023Z,3.90
2018-01-14T07:34:43.502Z,4.20
2018-01-14T07:37:11.076Z,4.17
2018-01-14T07:39:38.634Z,3.90
2018-01-14T07:42:06.450Z,3.90
2018-01-14T07:44:34.013Z,4.07
2018-01-14T07:47:01.558Z,3.57
2018-01-14T07:49:29.118Z,3.90
2018-01-14T07:51:56.723Z,4.03
2018-01-14T07:54:24.216Z,3.73
2018-01-14T07:56:51.762Z,3.90
2018-01-14T07:59:19.237Z,3.63
2018-01-14T08:01:46.807Z,3.30
2018-01-14T08:04:14.277Z,3.43
2018-01-14T08:06:41.823Z,3.50
2018-01-14T08:09:09.382Z,3.77
2018-01-14T08:11:36.944Z,3.40
2018-01-14T08:14:04.567Z,3.40
2018-01-14T08:16:32.119Z,3.07
2018-01-14T08:18:59.641Z,3.50
2018-01-14T08:21:27.189Z,3.83
2018-01-14T08:23:54.748Z,3.33
2018-01-14T08:26:22.225Z,3.57
2018-01-14T08:28:49.717Z,3.30
2018-01-14T08:31:17.198Z,4.03
2018-01-14T08:33:44.697Z,3.43
2018-01-14T08:36:12.929Z,3.87
2018-01-14T08:38:40.497Z,3.80
2018-01-14T08:41:08.079Z,3.43
2018-01-14T08:43:35.644Z,3.87
2018-01-14T08:46:03.208Z,3.80
2018-01-14T08:48:30.766Z,3.47
2018-01-14T08:50:58.315Z,3.80
2018-01-14T08:53:25.864Z,3.20
2018-01-14T08:55:53.402Z,3.07
2018-01-14T08:58:20.993Z,3.60
2018-01-14T09:00:48.478Z,3.93
2018-01-14T09:03:16.040Z,3.40
2018-01-14T09:05:43.601Z,3.67
2018-01-14T09:08:11.164Z,4.33
2018-01-14T09:10:38.726Z,3.90
2018-01-14T09:13:06.383Z,3.67
2018-01-14T09:15:33.865Z,3.50
2018-01-14T09:18:01.346Z,3.93
2018-01-14T09:20:28.869Z,3.63
2018-01-14T09:22:56.419Z,3.87
2018-01-14T09:25:23.970Z,3.93
2018-01-14T09:27:51.520Z,3.63
2018-01-14T09:30:30.889Z,3.90
2018-01-14T09:32:58.443Z,4.13
2018-01-14T09:35:25.995Z,3.73
2018-01-14T09:37:53.574Z,3.23
2018-01-14T09:40:21.117Z,3.87
2018-01-14T09:42:48.717Z,3.70
2018-01-14T09:45:16.267Z,3.50
2018-01-14T09:47:43.809Z,3.67
2018-01-14T09:50:11.294Z,3.53
2018-01-14T09:52:38.861Z,3.97
2018-01-14T09:55:06.456Z,3.43
2018-01-14T09:57:34.102Z,3.60
2018-01-14T10:00:01.675Z,3.63
2018-01-14T10:02:29.230Z,3.60
2018-01-14T10:04:56.717Z,3.93
2018-01-14T10:07:24.279Z,3.97
2018-01-14T10:09:51.767Z,3.60
2018-01-14T10:12:19.325Z,3.97
2018-01-14T10:14:46.916Z,3.53
2018-01-14T10:17:14.584Z,3.77
2018-01-14T10:19:42.159Z,4.00
2018-01-14T10:22:09.710Z,3.67
2018-01-14T10:24:37.185Z,3.60
2018-01-14T10:27:04.747Z,3.90
2018-01-14T10:29:32.270Z,3.73
2018-01-14T10:31:59.773Z,3.67
2018-01-14T10:34:27.318Z,5.30
2018-01-14T10:36:54.883Z,5.63
2018-01-14T10:39:22.430Z,7.17
2018-01-14T10:41:49.909Z,6.90
2018-01-14T10:44:17.422Z,6.70
2018-01-14T10:46:44.991Z,6.23
2018-01-14T10:49:12.477Z,6.33
2018-01-14T10:51:40.027Z,6.30
2018-01-14T10:54:07.574Z,6.13
2018-01-14T10:56:35.056Z,5.70
2018-01-14T10:59:02.616Z,6.17
2018-01-14T11:01:31.908Z,6.40
2018-01-14T11:03:59.459Z,6.40
2018-01-14T11:06:26.943Z,6.00
2018-01-14T11:08:54.508Z,6.37
2018-01-14T11:11:22.094Z,6.10
2018-01-14T11:13:49.645Z,5.60
2018-01-14T11:16:17.198Z,7.50
2018-01-14T11:18:44.769Z,9.53
2018-01-14T11:21:12.335Z,9.17
2018-01-14T11:23:39.895Z,8.17
2018-01-14T11:26:07.489Z,8.30
2018-01-14T11:28:37.743Z,8.20
2018-01-14T11:31:05.324Z,7.50
2018-01-14T11:33:32.882Z,8.20
2018-01-14T11:36:00.436Z,8.40
2018-01-14T11:38:28.001Z,7.80
2018-01-14T11:40:55.600Z,8.03
2018-01-14T11:43:23.173Z,7.53
2018-01-14T11:45:50.727Z,6.93
2018-01-14T11:48:18.289Z,6.47
2018-01-14T11:50:45.843Z,6.80
2018-01-14T11:53:13.394Z,7.67
2018-01-14T11:55:40.949Z,6.90
2018-01-14T11:58:08.469Z,6.83
2018-01-14T12:00:35.954Z,7.70
2018-01-14T12:03:03.503Z,7.60
2018-01-14T12:05:30.989Z,8.03
2018-01-14T12:07:58.729Z,7.57
2018-01-14T12:10:26.319Z,7.83
2018-01-14T12:12:53.927Z,7.77
2018-01-14T12:15:21.492Z,10.00
2018-01-14T12:17:49.087Z,12.13
2018-01-14T12:20:16.660Z,13.47
2018-01-14T12:22:44.158Z,18.30
2018-01-14T12:27:44.203Z,91.47
2018-01-14T12:30:11.712Z,75.47
2018-01-14T12:32:51.225Z,67.87
2018-01-14T12:35:18.804Z,62.00
2018-01-14T12:37:46.328Z,58.47
2018-01-14T12:40:13.896Z,54.63
2018-01-14T12:42:41.494Z,52.00
2018-01-14T12:45:09.056Z,48.53
2018-01-14T12:47:36.847Z,45.87
2018-01-14T12:50:04.448Z,44.43
2018-01-14T12:52:32.025Z,42.57
2018-01-14T12:54:59.656Z,39.33
2018-01-14T12:57:27.251Z,39.93
2018-01-14T12:59:54.836Z,37.67
2018-01-14T13:02:22.410Z,35.10
2018-01-14T13:04:49.915Z,33.70
2018-01-14T13:07:17.487Z,32.20
2018-01-14T13:09:45.059Z,27.47
2018-01-14T13:12:12.636Z,16.20
2018-01-14T13:14:40.135Z,12.47
2018-01-14T13:17:07.704Z,13.43
2018-01-14T13:19:35.268Z,15.33
2018-01-14T13:22:02.842Z,13.90
2018-01-14T13:24:30.438Z,13.87
2018-01-14T13:26:57.936Z,13.87
2018-01-14T13:29:25.490Z,13.40
2018-01-14T13:31:53.056Z,12.33
2018-01-14T13:34:20.628Z,12.27
2018-01-14T13:36:48.192Z,11.47
2018-01-14T13:39:15.793Z,11.53
2018-01-14T13:41:43.355Z,10.87
2018-01-14T13:44:10.912Z,10.40
2018-01-14T13:46:38.467Z,9.40
2018-01-14T13:49:05.962Z,9.53
2018-01-14T13:51:33.564Z,9.77
2018-01-14T13:54:01.123Z,8.67
2018-01-14T13:56:28.671Z,9.33
2018-01-14T13:58:56.227Z,9.63
2018-01-14T14:01:23.718Z,8.30
2018-01-14T14:03:51.213Z,8.87
2018-01-14T14:06:18.709Z,8.03
2018-01-14T14:08:46.300Z,8.03
2018-01-14T14:11:13.854Z,7.57
2018-01-14T14:13:41.349Z,7.60
2018-01-14T14:16:08.900Z,7.23
2018-01-14T14:18:36.466Z,6.77
2018-01-14T14:21:04.024Z,7.73
2018-01-14T14:23:31.583Z,6.70
2018-01-14T14:25:59.307Z,6.90
2018-01-14T14:28:26.894Z,6.40
2018-01-14T14:30:54.458Z,5.97
2018-01-14T14:33:22.024Z,7.10
2018-01-14T14:35:49.577Z,5.90
2018-01-14T14:38:17.078Z,5.93
2018-01-14T14:40:44.650Z,6.27
2018-01-14T14:43:12.154Z,5.83
2018-01-14T14:45:39.709Z,6.63
2018-01-14T14:48:07.294Z,5.90
2018-01-14T14:50:34.797Z,6.13
2018-01-14T14:53:02.297Z,5.73
2018-01-14T14:55:29.825Z,5.60
2018-01-14T14:57:57.371Z,5.93
2018-01-14T15:00:24.865Z,6.00
2018-01-14T15:02:52.449Z,5.60
2018-01-14T15:05:20.034Z,5.83
2018-01-14T15:07:47.660Z,5.80
2018-01-14T15:10:15.224Z,5.37
2018-01-14T15:12:42.788Z,5.27
2018-01-14T15:15:10.334Z,6.07
2018-01-14T15:17:37.809Z,5.90
2018-01-14T15:20:05.362Z,6.30
2018-01-14T15:22:32.977Z,5.43
2018-01-14T15:25:00.569Z,6.17
2018-01-14T15:27:28.128Z,6.10
2018-01-14T15:29:55.691Z,6.27
2018-01-14T15:32:23.248Z,6.33
2018-01-14T15:34:50.817Z,6.60
2018-01-14T15:37:18.297Z,5.67
2018-01-14T15:39:45.954Z,6.33
2018-01-14T15:42:13.499Z,5.70
2018-01-14T15:44:40.996Z,5.33
2018-01-14T15:47:08.571Z,5.97
2018-01-14T15:49:36.131Z,5.37
2018-01-14T15:52:03.628Z,5.77
2018-01-14T15:54:31.123Z,6.20
2018-01-14T15:56:58.673Z,6.87
2018-01-14T15:59:26.153Z,7.67
2018-01-14T16:01:53.710Z,7.90
2018-01-14T16:04:21.284Z,11.40
2018-01-14T16:06:48.852Z,15.27
2018-01-14T16:09:16.346Z,16.40
2018-01-14T16:11:43.915Z,18.27
2018-01-14T16:14:11.406Z,17.97
2018-01-14T16:16:38.972Z,15.40
2018-01-14T16:19:06.587Z,14.13
2018-01-14T16:21:34.144Z,14.23
2018-01-14T16:24:01.717Z,13.23
2018-01-14T16:26:29.218Z,12.40
2018-01-14T16:28:56.799Z,12.50
2018-01-14T16:31:24.392Z,13.43
2018-01-14T16:33:51.877Z,11.60
2018-01-14T16:36:19.365Z,11.43
2018-01-14T16:38:46.937Z,11.53
2018-01-14T16:41:14.540Z,10.83
2018-01-14T16:43:42.130Z,10.60
2018-01-14T16:46:09.649Z,10.60
2018-01-14T16:48:37.210Z,10.27
2018-01-14T16:51:04.788Z,10.57
2018-01-14T16:53:32.273Z,12.03
2018-01-14T16:55:59.841Z,12.63
2018-01-14T16:58:27.413Z,11.90
2018-01-14T17:00:54.970Z,13.60
2018-01-14T17:03:22.466Z,12.93
2018-01-14T17:05:50.049Z,13.03
2018-01-14T17:08:17.577Z,13.33
2018-01-14T17:10:45.147Z,12.53
2018-01-14T17:13:12.712Z,13.00
2018-01-14T17:15:40.276Z,12.67
2018-01-14T17:18:07.867Z,11.40
2018-01-14T17:20:35.439Z,11.63
2018-01-14T17:23:03.012Z,11.23
2018-01-14T17:25:30.559Z,10.97
2018-01-14T17:27:58.136Z,10.83
2018-01-14T17:30:25.720Z,11.00
2018-01-14T17:32:53.275Z,11.03
2018-01-14T17:35:20.847Z,11.83
2018-01-14T17:37:49.973Z,11.70
2018-01-14T17:40:17.530Z,11.20
2018-01-14T17:42:45.070Z,11.13
2018-01-14T17:45:12.565Z,10.47
2018-01-14T17:47:40.126Z,9.57
2018-01-14T17:50:07.695Z,10.87
2018-01-14T17:52:35.279Z,9.40
2018-01-14T17:55:02.836Z,9.67
2018-01-14T17:57:30.437Z,10.20
2018-01-14T17:59:58.028Z,9.30
2018-01-14T18:02:25.620Z,8.87
2018-01-14T18:04:53.174Z,9.60
2018-01-14T18:07:20.683Z,9.33
2018-01-14T18:09:48.236Z,9.57
2018-01-14T18:12:15.810Z,10.20
2018-01-14T18:14:43.322Z,9.17
2018-01-14T18:17:22.601Z,8.53
2018-01-14T18:19:50.172Z,8.67
2018-01-14T18:22:17.727Z,7.37
2018-01-14T18:24:45.231Z,7.30
2018-01-14T18:27:12.842Z,7.60
2018-01-14T18:29:40.426Z,7.73
2018-01-14T18:32:08.007Z,9.33
2018-01-14T18:34:35.604Z,13.83
2018-01-14T18:37:03.168Z,11.93
2018-01-14T18:39:30.740Z,10.50
2018-01-14T18:41:58.319Z,10.73
2018-01-14T18:44:25.881Z,10.23
2018-01-14T18:46:53.434Z,9.70
2018-01-14T18:49:20.993Z,9.30
2018-01-14T18:51:48.556Z,8.60
2018-01-14T18:54:16.049Z,8.90
2018-01-14T18:56:43.611Z,8.70
2018-01-14T18:59:11.192Z,8.27
2018-01-14T19:01:38.763Z,8.47
2018-01-14T19:04:06.318Z,8.00
2018-01-14T19:06:33.879Z,7.83
2018-01-14T19:09:01.449Z,7.43
2018-01-14T19:11:29.020Z,7.37
2018-01-14T19:13:56.575Z,7.70
2018-01-14T19:16:24.071Z,7.43
2018-01-14T19:18:51.638Z,7.80
2018-01-14T19:21:19.367Z,7.60
2018-01-14T19:23:46.830Z,6.60
2018-01-14T19:26:14.379Z,7.13
2018-01-14T19:28:41.890Z,7.27
2018-01-14T19:31:09.449Z,6.80
2018-01-14T19:33:37.114Z,7.03
2018-01-14T19:36:04.715Z,6.80
2018-01-14T19:38:32.266Z,7.10
2018-01-14T19:40:59.766Z,7.03
2018-01-14T19:43:27.277Z,7.20
2018-01-14T19:45:54.886Z,7.30
2018-01-14T19:48:22.468Z,7.13
2018-01-14T19:50:49.990Z,6.67
2018-01-14T19:53:17.589Z,6.97
2018-01-14T19:55:57.033Z,6.87
2018-01-14T19:58:24.785Z,7.90
2018-01-14T20:00:52.305Z,6.50
2018-01-14T20:03:19.864Z,7.30
2018-01-14T20:05:47.451Z,7.43
2018-01-14T20:08:15.032Z,6.90
2018-01-14T20:10:42.604Z,6.27
2018-01-14T20:13:10.105Z,6.93
2018-01-14T20:15:37.721Z,7.10
2018-01-14T20:18:05.309Z,7.63
2018-01-14T20:20:32.883Z,7.43
2018-01-14T20:23:00.418Z,7.60
2018-01-14T20:25:27.970Z,7.60
2018-01-14T20:27:55.524Z,7.37
2018-01-14T20:30:23.128Z,7.23
2018-01-14T20:32:50.700Z,7.80
2018-01-14T20:35:18.316Z,7.53
2018-01-14T20:38:03.416Z,7.80
2018-01-14T20:40:31.071Z,8.23
2018-01-14T20:42:58.648Z,7.87
2018-01-14T20:45:26.203Z,7.53
2018-01-14T20:47:53.755Z,7.63
2018-01-14T20:50:21.316Z,7.70
2018-01-14T20:52:48.902Z,7.07
2018-01-14T20:55:16.387Z,8.37
2018-01-14T20:57:43.948Z,7.50
2018-01-14T21:00:11.510Z,7.17
2018-01-14T21:02:39.066Z,6.80
2018-01-14T21:05:06.546Z,6.97
2018-01-14T21:07:34.094Z,6.93
2018-01-14T21:10:01.614Z,6.60
2018-01-14T21:12:29.169Z,6.50
2018-01-14T21:14:56.725Z,6.50
2018-01-14T21:17:24.279Z,6.63
2018-01-14T21:19:51.762Z,6.13
2018-01-14T21:22:19.522Z,7.10
2018-01-14T21:24:47.006Z,6.57
2018-01-14T21:27:15.234Z,6.30
2018-01-14T21:29:42.791Z,6.60
2018-01-14T21:32:10.960Z,6.37
2018-01-14T21:37:27.842Z,5.83
2018-01-14T21:39:55.467Z,6.27
2018-01-14T21:42:30.665Z,6.27
2018-01-14T21:45:03.579Z,6.03
2018-01-14T21:47:31.117Z,6.50
2018-01-14T21:49:58.698Z,6.33
2018-01-14T21:52:26.198Z,6.50
2018-01-14T21:54:54.413Z,5.97
2018-01-14T21:57:21.986Z,6.23
2018-01-14T21:59:49.502Z,5.87
2018-01-14T22:02:17.091Z,5.60
2018-01-14T22:04:44.652Z,6.27
2018-01-14T22:07:12.696Z,5.93
2018-01-14T22:09:40.288Z,5.90
2018-01-14T22:12:07.853Z,6.27
2018-01-14T22:14:35.930Z,5.90
2018-01-14T22:17:03.501Z,6.20
2018-01-14T22:19:31.069Z,5.80
2018-01-14T22:21:59.802Z,5.67
2018-01-14T22:24:27.380Z,6.23
2018-01-14T22:26:54.941Z,6.57
2018-01-14T22:29:24.628Z,5.90
2018-01-14T22:31:53.601Z,6.13
2018-01-14T22:34:21.130Z,6.10
2018-01-14T22:36:48.683Z,6.03
2018-01-14T22:39:16.900Z,5.90
2018-01-14T22:41:44.974Z,5.70
2018-01-14T22:44:13.358Z,6.30
2018-01-14T22:46:40.954Z,5.63
2018-01-14T22:49:09.158Z,6.30
2018-01-14T22:51:39.017Z,6.03
2018-01-14T22:54:06.533Z,5.80
2018-01-14T22:56:34.115Z,5.73
2018-01-14T22:59:02.099Z,5.83
2018-01-14T23:01:29.799Z,5.43
2018-01-14T23:03:57.309Z,5.60
2018-01-14T23:06:24.868Z,5.77
2018-01-14T23:08:52.424Z,5.97
2018-01-14T23:11:19.928Z,5.80
2018-01-14T23:13:48.114Z,5.70
2018-01-14T23:16:15.628Z,5.33
2018-01-14T23:18:43.119Z,5.90
2018-01-14T23:21:10.663Z,5.67
2018-01-14T23:23:39.189Z,5.90
2018-01-14T23:29:03.522Z,5.60
2018-01-14T23:31:31.053Z,5.80
2018-01-14T23:33:58.604Z,5.57
2018-01-14T23:36:26.207Z,5.47
2018-01-14T23:38:54.278Z,5.37
2018-01-14T23:41:21.884Z,5.87
2018-01-14T23:43:53.166Z,5.77
2018-01-14T23:46:20.726Z,5.30
2018-01-14T23:48:48.289Z,5.53
2018-01-14T23:51:15.883Z,5.40
2018-01-14T23:53:43.452Z,5.20
2018-01-14T23:56:12.023Z,5.83
2018-01-14T23:58:40.279Z,5.37
